createdAt,value
2023-05-20T00:01:22.226Z,15.90
2023-05-20T00:03:50.008Z,11.63
2023-05-20T00:06:17.715Z,9.95
2023-05-20T00:08:50.559Z,8.32
2023-05-20T00:11:18.356Z,7.85
2023-05-20T00:13:45.981Z,9.82
2023-05-20T00:16:13.550Z,11.20
2023-05-20T00:18:41.123Z,11.98
2023-05-20T00:21:08.842Z,12.32
2023-05-20T00:23:36.405Z,30.13
2023-05-20T00:26:04.077Z,12.13
2023-05-20T00:28:31.699Z,13.60
2023-05-20T00:30:59.237Z,9.50
2023-05-20T00:33:26.790Z,10.32
2023-05-20T00:35:54.371Z,12.93
2023-05-20T00:38:22.226Z,10.68
2023-05-20T00:40:49.711Z,11.55
2023-05-20T00:43:17.194Z,11.80
2023-05-20T00:45:44.801Z,12.15
2023-05-20T00:48:12.721Z,12.50
2023-05-20T00:50:40.174Z,18.90
2023-05-20T00:53:07.740Z,10.45
2023-05-20T00:55:36.520Z,12.00
2023-05-20T00:58:04.146Z,11.43
2023-05-20T01:00:31.759Z,12.95
2023-05-20T01:02:59.559Z,13.00
2023-05-20T01:05:27.255Z,11.23
2023-05-20T01:07:55.019Z,10.23
2023-05-20T01:10:24.834Z,13.90
2023-05-20T01:12:55.276Z,12.07
2023-05-20T01:15:24.128Z,13.85
2023-05-20T01:17:53.307Z,13.60
2023-05-20T01:20:21.385Z,14.30
2023-05-20T01:22:50.075Z,12.65
2023-05-20T01:25:17.593Z,14.27
2023-05-20T01:27:45.462Z,10.52
2023-05-20T01:30:16.314Z,11.48
2023-05-20T01:32:45.046Z,10.32
2023-05-20T01:35:12.828Z,11.82
2023-05-20T01:37:41.437Z,13.38
2023-05-20T01:40:09.773Z,13.10
2023-05-20T01:42:37.621Z,12.40
2023-05-20T01:45:05.578Z,11.07
2023-05-20T01:47:33.431Z,11.40
2023-05-20T01:50:01.058Z,12.70
2023-05-20T01:52:28.644Z,13.88
2023-05-20T01:54:56.167Z,9.55
2023-05-20T01:57:24.100Z,14.15
2023-05-20T01:59:51.854Z,11.98
2023-05-20T02:02:19.670Z,12.07
2023-05-20T02:04:50.459Z,11.35
2023-05-20T02:07:19.449Z,9.65
2023-05-20T02:09:47.484Z,11.27
2023-05-20T02:12:17.719Z,12.50
2023-05-20T02:14:46.494Z,12.00
2023-05-20T02:17:17.035Z,9.35
2023-05-20T02:19:44.994Z,15.77
2023-05-20T02:22:12.603Z,11.32
2023-05-20T02:24:40.364Z,11.85
2023-05-20T02:27:08.167Z,15.15
2023-05-20T02:29:35.898Z,11.75
2023-05-20T02:32:03.555Z,13.88
2023-05-20T02:34:32.649Z,11.82
2023-05-20T02:37:00.171Z,11.38
2023-05-20T02:39:29.108Z,13.93
2023-05-20T02:41:57.114Z,14.93
2023-05-20T02:44:24.642Z,12.32
2023-05-20T02:46:52.834Z,17.67
2023-05-20T02:49:20.370Z,13.27
2023-05-20T02:51:47.887Z,10.25
2023-05-20T02:54:17.310Z,10.80
2023-05-20T02:56:44.943Z,13.27
2023-05-20T02:59:13.008Z,11.18
2023-05-20T03:01:41.188Z,11.77
2023-05-20T03:04:09.188Z,11.60
2023-05-20T03:06:36.689Z,11.68
2023-05-20T03:09:04.270Z,10.82
2023-05-20T03:11:31.968Z,10.70
2023-05-20T03:13:59.478Z,10.13
2023-05-20T03:16:28.834Z,10.85
2023-05-20T03:18:56.591Z,12.07
2023-05-20T03:21:24.517Z,11.50
2023-05-20T03:23:52.527Z,12.43
2023-05-20T03:26:20.076Z,9.45
2023-05-20T03:28:47.640Z,13.73
2023-05-20T03:31:16.317Z,13.05
2023-05-20T03:33:43.949Z,11.07
2023-05-20T03:36:11.504Z,12.07
2023-05-20T03:38:39.140Z,12.13
2023-05-20T03:41:06.947Z,12.15
2023-05-20T03:43:34.390Z,10.15
2023-05-20T03:46:02.269Z,12.35
2023-05-20T03:48:29.792Z,11.88
2023-05-20T03:50:57.737Z,13.23
2023-05-20T03:53:25.500Z,15.02
2023-05-20T03:55:53.056Z,11.68
2023-05-20T03:58:21.702Z,10.98
2023-05-20T04:00:49.993Z,10.18
2023-05-20T04:03:17.561Z,14.60
2023-05-20T04:05:45.141Z,11.40
2023-05-20T04:08:14.210Z,14.80
2023-05-20T04:10:43.347Z,11.93
2023-05-20T04:13:11.949Z,13.18
2023-05-20T04:15:39.524Z,14.00
2023-05-20T04:18:09.694Z,13.07
2023-05-20T04:20:37.315Z,15.93
2023-05-20T04:23:04.837Z,13.63
2023-05-20T04:25:33.196Z,13.95
2023-05-20T04:28:01.536Z,12.95
2023-05-20T04:30:29.156Z,24.10
2023-05-20T04:32:56.729Z,14.65
2023-05-20T04:35:26.486Z,15.30
2023-05-20T04:37:55.973Z,14.07
2023-05-20T04:40:23.661Z,14.10
2023-05-20T04:42:51.732Z,10.48
2023-05-20T04:45:19.675Z,11.48
2023-05-20T04:47:47.191Z,11.48
2023-05-20T04:50:15.385Z,14.02
2023-05-20T04:52:43.701Z,17.25
2023-05-20T04:55:12.425Z,15.63
2023-05-20T04:57:42.704Z,19.17
2023-05-20T05:00:11.448Z,19.83
2023-05-20T05:02:39.381Z,15.25
2023-05-20T05:05:07.248Z,19.58
2023-05-20T05:07:34.932Z,23.35
2023-05-20T05:10:02.549Z,17.42
2023-05-20T05:12:30.125Z,18.73
2023-05-20T05:14:59.367Z,19.67
2023-05-20T05:17:27.015Z,17.27
2023-05-20T05:19:54.781Z,18.77
2023-05-20T05:22:22.403Z,15.82
2023-05-20T05:24:49.909Z,19.33
2023-05-20T05:27:17.644Z,22.38
2023-05-20T05:29:45.218Z,22.45
2023-05-20T05:32:12.723Z,19.10
2023-05-20T05:34:40.254Z,21.48
2023-05-20T05:37:08.018Z,22.42
2023-05-20T05:39:38.225Z,24.67
2023-05-20T05:42:06.071Z,24.02
2023-05-20T05:44:33.683Z,25.00
2023-05-20T05:47:01.409Z,29.60
2023-05-20T05:49:29.041Z,25.90
2023-05-20T05:51:56.599Z,27.83
2023-05-20T05:54:24.175Z,23.70
2023-05-20T05:56:57.969Z,27.85
2023-05-20T05:59:25.489Z,27.20
2023-05-20T06:01:53.149Z,25.88
2023-05-20T06:04:20.640Z,29.95
2023-05-20T06:06:48.935Z,23.00
2023-05-20T06:09:16.755Z,25.75
2023-05-20T06:11:45.075Z,30.27
2023-05-20T06:14:12.659Z,26.55
2023-05-20T06:16:40.207Z,24.23
2023-05-20T06:19:10.092Z,25.83
2023-05-20T06:21:37.869Z,25.17
2023-05-20T06:24:05.838Z,21.85
2023-05-20T06:26:33.999Z,27.15
2023-05-20T06:29:01.525Z,26.35
2023-05-20T06:31:30.795Z,29.92
2023-05-20T06:33:58.284Z,24.33
2023-05-20T06:36:25.828Z,25.27
2023-05-20T06:38:53.344Z,28.95
2023-05-20T06:41:20.836Z,29.20
2023-05-20T06:43:48.612Z,30.15
2023-05-20T06:46:16.924Z,28.40
2023-05-20T06:48:44.452Z,30.08
2023-05-20T06:51:12.016Z,29.85
2023-05-20T06:53:39.687Z,27.90
2023-05-20T06:56:07.227Z,32.05
2023-05-20T06:58:34.837Z,31.40
2023-05-20T07:01:02.574Z,29.75
2023-05-20T07:03:30.208Z,30.63
2023-05-20T07:05:58.544Z,29.42
2023-05-20T07:08:26.552Z,27.55
2023-05-20T07:10:58.925Z,29.17
2023-05-20T07:13:26.759Z,27.27
2023-05-20T07:15:54.541Z,26.63
2023-05-20T07:18:22.417Z,29.33
2023-05-20T07:20:49.897Z,30.55
2023-05-20T07:23:17.433Z,26.90
2023-05-20T07:25:45.218Z,26.40
2023-05-20T07:28:12.741Z,27.95
2023-05-20T07:30:40.346Z,30.02
2023-05-20T07:33:08.254Z,26.55
2023-05-20T07:35:36.149Z,23.10
2023-05-20T07:38:04.045Z,26.52
2023-05-20T07:40:31.881Z,29.98
2023-05-20T07:42:59.447Z,29.40
2023-05-20T07:45:27.046Z,28.00
2023-05-20T07:47:55.082Z,23.60
2023-05-20T07:50:22.817Z,25.25
2023-05-20T07:52:56.696Z,28.67
2023-05-20T07:55:24.685Z,27.45
2023-05-20T07:57:52.227Z,27.27
2023-05-20T08:00:20.081Z,28.35
2023-05-20T08:02:48.033Z,26.00
2023-05-20T08:05:15.681Z,27.73
2023-05-20T08:07:43.152Z,25.98
2023-05-20T08:10:13.598Z,26.05
2023-05-20T08:12:41.334Z,12.13
2023-05-20T08:15:09.102Z,16.52
2023-05-20T08:17:36.921Z,10.30
2023-05-20T08:20:05.154Z,7.40
2023-05-20T08:22:32.697Z,11.43
2023-05-20T08:25:00.416Z,9.20
2023-05-20T08:27:27.917Z,15.60
2023-05-20T08:29:55.447Z,11.48
2023-05-20T08:32:24.795Z,12.00
2023-05-20T08:34:52.323Z,13.35
2023-05-20T08:37:19.811Z,14.60
2023-05-20T08:39:48.880Z,20.65
2023-05-20T08:42:17.661Z,15.60
2023-05-20T08:44:47.195Z,16.63
2023-05-20T08:47:14.754Z,17.05
2023-05-20T08:49:42.286Z,16.20
2023-05-20T08:52:14.245Z,16.80
2023-05-20T08:54:45.764Z,17.20
2023-05-20T08:57:14.721Z,16.50
2023-05-20T08:59:46.041Z,17.42
2023-05-20T09:02:14.219Z,17.92
2023-05-20T09:04:42.166Z,14.48
2023-05-20T09:07:09.782Z,17.95
2023-05-20T09:09:37.328Z,20.65
2023-05-20T09:12:04.913Z,16.00
2023-05-20T09:14:32.597Z,15.35
2023-05-20T09:17:00.640Z,16.77
2023-05-20T09:19:28.120Z,18.67
2023-05-20T09:21:55.971Z,15.90
2023-05-20T09:24:27.166Z,20.10
2023-05-20T09:26:54.780Z,17.98
2023-05-20T09:29:22.532Z,16.00
2023-05-20T09:31:50.722Z,13.55
2023-05-20T09:34:18.537Z,15.45
2023-05-20T09:36:46.234Z,17.98
2023-05-20T09:39:15.400Z,22.10
2023-05-20T09:42:06.705Z,19.13
2023-05-20T09:44:34.757Z,17.30
2023-05-20T09:47:02.472Z,20.92
2023-05-20T09:49:31.846Z,15.18
2023-05-20T09:52:00.397Z,16.70
2023-05-20T09:54:29.100Z,17.85
2023-05-20T09:56:58.390Z,18.10
2023-05-20T09:59:26.039Z,17.27
2023-05-20T10:01:53.666Z,17.20
2023-05-20T10:04:22.842Z,20.38
2023-05-20T10:06:57.904Z,16.77
2023-05-20T10:09:38.533Z,20.88
2023-05-20T10:12:17.484Z,17.52
2023-05-20T10:14:53.557Z,18.35
2023-05-20T10:17:40.126Z,22.27
2023-05-20T10:20:09.908Z,21.92
2023-05-20T10:22:37.473Z,17.48
2023-05-20T10:25:08.776Z,19.85
2023-05-20T10:27:46.663Z,20.33
2023-05-20T10:30:18.140Z,18.00
2023-05-20T10:32:58.820Z,22.10
2023-05-20T10:35:29.977Z,20.15
2023-05-20T10:40:49.882Z,17.35
2023-05-20T10:43:19.794Z,19.88
2023-05-20T10:45:51.971Z,22.70
2023-05-20T10:48:26.113Z,22.83
2023-05-20T10:50:58.066Z,23.63
2023-05-20T10:53:33.633Z,19.92
2023-05-20T10:56:02.317Z,22.90
2023-05-20T10:58:37.233Z,16.70
2023-05-20T11:01:04.797Z,20.05
2023-05-20T11:03:32.740Z,18.75
2023-05-20T11:06:00.576Z,19.27
2023-05-20T11:08:32.269Z,18.75
2023-05-20T11:10:59.989Z,17.60
2023-05-20T11:13:27.695Z,22.15
2023-05-20T11:15:56.131Z,17.42
2023-05-20T11:18:23.760Z,19.05
2023-05-20T11:20:51.776Z,17.55
2023-05-20T11:23:19.882Z,16.33
2023-05-20T11:25:47.483Z,19.70
2023-05-20T11:28:15.323Z,20.02
2023-05-20T11:30:46.246Z,21.33
2023-05-20T11:33:14.920Z,15.13
2023-05-20T11:35:50.334Z,23.58
2023-05-20T11:38:17.930Z,15.95
2023-05-20T11:40:52.855Z,19.83
2023-05-20T11:43:21.686Z,18.42
2023-05-20T11:45:53.976Z,17.30
2023-05-20T11:48:21.988Z,18.58
2023-05-20T11:50:50.377Z,18.83
2023-05-20T11:53:18.985Z,23.17
2023-05-20T11:55:48.626Z,27.00
2023-05-20T11:58:23.228Z,18.17
2023-05-20T12:00:55.050Z,19.92
2023-05-20T12:03:25.232Z,18.23
2023-05-20T12:05:53.605Z,23.58
2023-05-20T12:08:21.096Z,16.38
2023-05-20T12:10:48.826Z,15.75
2023-05-20T12:13:20.377Z,18.67
2023-05-20T12:15:47.996Z,24.48
2023-05-20T12:18:15.724Z,21.85
2023-05-20T12:20:43.341Z,21.70
2023-05-20T12:23:10.872Z,24.00
2023-05-20T12:25:38.432Z,21.25
2023-05-20T12:28:05.996Z,18.08
2023-05-20T12:30:33.789Z,25.02
2023-05-20T12:33:01.636Z,22.63
2023-05-20T12:35:42.396Z,20.85
2023-05-20T12:38:10.643Z,19.02
2023-05-20T12:40:38.771Z,20.08
2023-05-20T12:43:07.037Z,21.48
2023-05-20T12:45:34.692Z,17.20
2023-05-20T12:48:02.389Z,18.85
2023-05-20T12:50:30.122Z,19.10
2023-05-20T12:52:57.844Z,19.15
2023-05-20T12:55:25.412Z,25.48
2023-05-20T12:57:53.278Z,20.20
2023-05-20T13:00:21.303Z,13.43
2023-05-20T13:02:49.134Z,22.73
2023-05-20T13:05:16.788Z,21.52
2023-05-20T13:07:44.455Z,21.13
2023-05-20T13:10:15.487Z,19.90
2023-05-20T13:12:46.771Z,19.85
2023-05-20T13:15:15.509Z,18.23
2023-05-20T13:17:46.260Z,24.58
2023-05-20T13:20:14.108Z,16.85
2023-05-20T13:22:41.771Z,16.60
2023-05-20T13:25:10.865Z,16.58
2023-05-20T13:27:38.939Z,13.48
2023-05-20T13:30:07.582Z,17.80
2023-05-20T13:32:35.269Z,16.23
2023-05-20T13:35:02.855Z,13.43
2023-05-20T13:37:30.894Z,20.92
2023-05-20T13:39:59.126Z,12.68
2023-05-20T13:42:26.811Z,14.88
2023-05-20T13:44:54.466Z,13.30
2023-05-20T13:47:22.123Z,14.88
2023-05-20T13:49:49.785Z,14.73
2023-05-20T13:52:17.343Z,18.02
2023-05-20T13:54:49.593Z,16.17
2023-05-20T13:57:20.010Z,15.35
2023-05-20T13:59:47.694Z,13.20
2023-05-20T14:02:15.355Z,13.48
2023-05-20T14:04:45.532Z,15.85
2023-05-20T14:07:13.707Z,16.83
2023-05-20T14:09:41.423Z,17.13
2023-05-20T14:12:09.312Z,14.13
2023-05-20T14:14:37.096Z,11.68
2023-05-20T14:17:04.753Z,14.63
2023-05-20T14:19:32.488Z,10.20
2023-05-20T14:22:01.807Z,15.70
2023-05-20T14:24:29.491Z,12.45
2023-05-20T14:26:57.304Z,8.55
2023-05-20T14:29:24.909Z,11.13
2023-05-20T14:31:52.550Z,12.27
2023-05-20T14:34:20.251Z,11.07
2023-05-20T14:36:48.449Z,13.10
2023-05-20T14:39:16.286Z,12.05
2023-05-20T14:41:43.773Z,11.77
2023-05-20T14:44:11.388Z,11.52
2023-05-20T14:46:42.153Z,10.85
2023-05-20T14:49:09.933Z,10.95
2023-05-20T14:51:37.537Z,10.98
2023-05-20T14:54:06.702Z,7.53
2023-05-20T14:56:34.384Z,11.60
2023-05-20T14:59:05.580Z,10.75
2023-05-20T15:01:33.687Z,7.68
2023-05-20T15:04:01.289Z,8.93
2023-05-20T15:06:32.352Z,8.85
2023-05-20T15:08:59.876Z,8.88
2023-05-20T15:11:27.901Z,10.80
2023-05-20T15:13:55.823Z,7.90
2023-05-20T15:16:25.081Z,9.80
2023-05-20T15:18:53.015Z,8.15
2023-05-20T15:21:20.688Z,9.48
2023-05-20T15:23:48.256Z,7.50
2023-05-20T15:26:15.853Z,9.10
2023-05-20T15:28:43.517Z,9.20
2023-05-20T15:31:11.390Z,8.68
2023-05-20T15:33:39.113Z,11.85
2023-05-20T15:36:07.207Z,7.05
2023-05-20T15:38:34.787Z,9.98
2023-05-20T15:41:05.576Z,10.75
2023-05-20T15:43:33.656Z,12.25
2023-05-20T15:46:02.073Z,9.38
2023-05-20T15:48:29.703Z,8.52
2023-05-20T15:50:57.440Z,7.88
2023-05-20T15:53:25.098Z,9.80
2023-05-20T15:55:53.181Z,6.78
2023-05-20T15:58:20.872Z,9.35
2023-05-20T16:00:48.757Z,8.27
2023-05-20T16:03:17.229Z,10.02
2023-05-20T16:05:45.010Z,7.20
2023-05-20T16:08:12.579Z,9.02
2023-05-20T16:10:40.159Z,8.15
2023-05-20T16:13:07.690Z,11.18
2023-05-20T16:15:37.139Z,8.02
2023-05-20T16:18:05.510Z,5.63
2023-05-20T16:20:33.265Z,8.82
2023-05-20T16:23:01.458Z,11.38
2023-05-20T16:25:29.253Z,9.65
2023-05-20T16:27:58.148Z,10.15
2023-05-20T16:30:26.014Z,5.85
2023-05-20T16:32:53.903Z,5.95
2023-05-20T16:35:25.100Z,9.95
2023-05-20T16:37:52.801Z,8.02
2023-05-20T16:40:20.547Z,8.07
2023-05-20T16:42:48.353Z,5.93
2023-05-20T16:45:16.408Z,6.28
2023-05-20T16:47:44.104Z,9.13
2023-05-20T16:50:11.833Z,6.90
2023-05-20T16:52:39.538Z,13.18
2023-05-20T16:55:08.972Z,6.00
2023-05-20T16:57:36.634Z,6.38
2023-05-20T17:00:11.481Z,9.98
2023-05-20T17:02:39.247Z,7.13
2023-05-20T17:05:07.359Z,6.35
2023-05-20T17:07:34.836Z,7.00
2023-05-20T17:10:05.304Z,7.80
2023-05-20T17:12:37.950Z,6.78
2023-05-20T17:15:06.748Z,5.70
2023-05-20T17:17:34.426Z,5.72
2023-05-20T17:20:02.322Z,6.18
2023-05-20T17:22:34.264Z,4.80
2023-05-20T17:25:04.734Z,8.00
2023-05-20T17:27:33.880Z,7.75
2023-05-20T17:30:01.474Z,5.88
2023-05-20T17:32:29.081Z,7.03
2023-05-20T17:34:56.894Z,5.85
2023-05-20T17:37:24.646Z,6.32
2023-05-20T17:39:52.200Z,5.53
2023-05-20T17:42:19.890Z,6.68
2023-05-20T17:44:47.412Z,4.32
2023-05-20T17:47:14.936Z,7.03
2023-05-20T17:49:42.614Z,4.90
2023-05-20T17:52:10.305Z,7.05
2023-05-20T17:54:37.924Z,6.85
2023-05-20T17:57:05.527Z,7.32
2023-05-20T17:59:37.291Z,9.15
2023-05-20T18:02:06.879Z,5.22
2023-05-20T18:04:34.573Z,8.25
2023-05-20T18:07:04.597Z,10.85
2023-05-20T18:09:32.652Z,6.47
2023-05-20T18:12:00.264Z,7.22
2023-05-20T18:14:27.633Z,8.95
2023-05-20T18:16:55.382Z,6.88
2023-05-20T18:19:23.332Z,6.50
2023-05-20T18:21:51.219Z,9.48
2023-05-20T18:24:19.888Z,5.82
2023-05-20T18:26:48.370Z,8.27
2023-05-20T18:29:18.140Z,7.25
2023-05-20T18:31:45.750Z,6.50
2023-05-20T18:34:15.334Z,6.30
2023-05-20T18:36:42.915Z,8.80
2023-05-20T18:39:10.797Z,8.35
2023-05-20T18:41:46.592Z,6.97
2023-05-20T18:44:15.678Z,8.18
2023-05-20T18:46:43.551Z,8.30
2023-05-20T18:49:14.951Z,8.88
2023-05-20T18:51:42.586Z,9.40
2023-05-20T18:54:10.122Z,7.28
2023-05-20T18:56:38.608Z,11.18
2023-05-20T18:59:06.337Z,7.85
2023-05-20T19:01:34.436Z,7.80
2023-05-20T19:04:02.016Z,10.10
2023-05-20T19:06:29.632Z,11.15
2023-05-20T19:08:57.391Z,9.20
2023-05-20T19:11:24.921Z,7.75
2023-05-20T19:13:52.538Z,12.48
2023-05-20T19:16:20.343Z,9.77
2023-05-20T19:18:47.965Z,11.15
2023-05-20T19:21:18.398Z,8.15
2023-05-20T19:23:47.458Z,9.48
2023-05-20T19:26:16.018Z,9.30
2023-05-20T19:28:43.680Z,7.80
2023-05-20T19:31:11.176Z,8.70
2023-05-20T19:33:38.735Z,9.30
2023-05-20T19:36:06.646Z,10.30
2023-05-20T19:38:34.190Z,9.45
2023-05-20T19:41:01.954Z,8.75
2023-05-20T19:43:31.150Z,7.18
2023-05-20T19:45:58.650Z,10.77
2023-05-20T19:48:26.247Z,10.45
2023-05-20T19:50:53.946Z,8.10
2023-05-20T19:53:21.817Z,9.70
2023-05-20T19:55:49.532Z,9.93
2023-05-20T19:58:17.406Z,9.40
2023-05-20T20:00:44.811Z,9.82
2023-05-20T20:03:13.002Z,11.43
2023-05-20T20:05:40.516Z,10.82
2023-05-20T20:08:08.027Z,7.32
2023-05-20T20:10:38.043Z,8.52
2023-05-20T20:13:05.419Z,12.50
2023-05-20T20:15:33.323Z,10.80
2023-05-20T20:18:02.539Z,9.02
2023-05-20T20:20:30.447Z,8.65
2023-05-20T20:22:58.311Z,11.38
2023-05-20T20:25:27.330Z,11.50
2023-05-20T20:27:57.546Z,8.63
2023-05-20T20:30:25.470Z,7.25
2023-05-20T20:32:54.177Z,7.57
2023-05-20T20:35:23.503Z,8.10
2023-05-20T20:37:56.767Z,11.65
2023-05-20T20:40:26.220Z,7.38
2023-05-20T20:42:55.528Z,9.15
2023-05-20T20:45:23.587Z,10.05
2023-05-20T20:47:55.496Z,7.38
2023-05-20T20:50:23.114Z,9.90
2023-05-20T20:52:53.185Z,10.75
2023-05-20T20:55:20.745Z,7.10
2023-05-20T20:57:48.800Z,9.10
2023-05-20T21:00:24.232Z,8.35
2023-05-20T21:02:52.279Z,7.90
2023-05-20T21:05:22.075Z,9.38
2023-05-20T21:07:53.225Z,8.20
2023-05-20T21:10:21.391Z,7.65
2023-05-20T21:12:48.983Z,7.45
2023-05-20T21:15:16.690Z,6.47
2023-05-20T21:17:44.416Z,11.13
2023-05-20T21:20:13.536Z,7.20
2023-05-20T21:22:43.136Z,7.57
2023-05-20T21:25:11.017Z,8.45
2023-05-20T21:27:38.692Z,9.00
2023-05-20T21:30:06.627Z,8.18
2023-05-20T21:32:34.307Z,9.45
2023-05-20T21:35:01.894Z,9.90
2023-05-20T21:37:29.518Z,8.80
2023-05-20T21:39:57.230Z,8.77
2023-05-20T21:42:24.882Z,7.32
2023-05-20T21:44:52.574Z,6.63
2023-05-20T21:47:21.277Z,9.68
2023-05-20T21:49:48.951Z,7.68
2023-05-20T21:52:19.365Z,5.43
2023-05-20T21:54:47.148Z,6.60
2023-05-20T21:57:14.724Z,5.53
2023-05-20T21:59:42.464Z,5.38
2023-05-20T22:02:10.097Z,5.07
2023-05-20T22:04:38.115Z,6.53
2023-05-20T22:07:05.781Z,5.45
2023-05-20T22:09:33.521Z,7.00
2023-05-20T22:12:03.152Z,4.72
2023-05-20T22:14:35.636Z,4.93
2023-05-20T22:17:03.789Z,4.00
2023-05-20T22:19:31.550Z,5.70
2023-05-20T22:21:59.354Z,3.53
2023-05-20T22:24:26.942Z,2.25
2023-05-20T22:26:54.606Z,3.03
2023-05-20T22:29:24.904Z,2.88
2023-05-20T22:31:57.963Z,2.08
2023-05-20T22:36:54.603Z,2.50
2023-05-20T22:39:22.249Z,4.88
2023-05-20T22:41:50.060Z,3.85
2023-05-20T22:44:17.701Z,2.35
2023-05-20T22:46:45.438Z,3.10
2023-05-20T22:49:13.620Z,1.80
2023-05-20T22:51:41.771Z,1.85
2023-05-20T22:54:10.280Z,1.00
2023-05-20T22:56:37.916Z,2.58
2023-05-20T22:59:05.520Z,1.60
2023-05-20T23:01:33.202Z,1.48
2023-05-20T23:04:00.879Z,1.90
2023-05-20T23:06:31.823Z,2.47
2023-05-20T23:08:59.608Z,3.90
2023-05-20T23:11:27.822Z,0.93
2023-05-20T23:13:55.381Z,2.60
2023-05-20T23:16:23.213Z,3.65
2023-05-20T23:18:50.973Z,2.20
2023-05-20T23:21:20.145Z,3.55
2023-05-20T23:23:48.014Z,2.00
2023-05-20T23:26:15.563Z,1.80
2023-05-20T23:28:43.727Z,2.67
2023-05-20T23:31:11.478Z,2.38
2023-05-20T23:33:39.177Z,1.42
2023-05-20T23:36:09.985Z,2.08
2023-05-20T23:38:37.624Z,3.05
2023-05-20T23:41:05.343Z,4.28
2023-05-20T23:43:32.873Z,1.33
2023-05-20T23:46:00.544Z,7.22
2023-05-20T23:48:28.339Z,2.25
2023-05-20T23:50:55.956Z,3.03
2023-05-20T23:53:23.500Z,2.33
2023-05-20T23:55:51.180Z,4.10
2023-05-20T23:58:18.869Z,2.85
